createdAt,value
2017-11-24T00:01:43.972Z,84.50
2017-11-24T00:04:10.201Z,84.70
2017-11-24T00:06:36.455Z,84.70
2017-11-24T00:09:02.710Z,85.50
2017-11-24T00:11:28.976Z,85.40
2017-11-24T00:13:55.296Z,85.60
2017-11-24T00:16:21.465Z,85.00
2017-11-24T00:18:47.989Z,85.40
2017-11-24T00:21:14.195Z,84.80
2017-11-24T00:23:40.720Z,84.90
2017-11-24T00:26:06.995Z,84.60
2017-11-24T00:28:33.579Z,84.40
2017-11-24T00:31:00.619Z,85.30
2017-11-24T00:33:26.811Z,85.00
2017-11-24T00:35:53.449Z,84.90
2017-11-24T00:38:19.809Z,85.00
2017-11-24T00:40:47.238Z,85.30
2017-11-24T00:43:13.451Z,85.20
2017-11-24T00:45:39.719Z,85.30
2017-11-24T00:48:06.121Z,85.90
2017-11-24T00:50:32.288Z,86.00
2017-11-24T00:52:58.762Z,85.80
2017-11-24T00:55:25.724Z,85.70
2017-11-24T00:57:53.222Z,85.60
2017-11-24T01:00:19.482Z,85.60
2017-11-24T01:02:46.434Z,86.30
2017-11-24T01:05:14.519Z,86.30
2017-11-24T01:07:40.717Z,85.80
2017-11-24T01:10:08.043Z,85.80
2017-11-24T01:12:34.505Z,86.70
2017-11-24T01:15:02.709Z,86.70
2017-11-24T01:17:29.189Z,86.50
2017-11-24T01:19:55.506Z,86.90
2017-11-24T01:22:39.179Z,86.80
2017-11-24T01:25:05.386Z,87.50
2017-11-24T01:27:32.565Z,86.50
2017-11-24T01:30:01.380Z,87.20
2017-11-24T01:32:28.600Z,87.00
2017-11-24T01:34:55.644Z,87.50
2017-11-24T01:37:21.862Z,86.80
2017-11-24T01:39:48.927Z,86.70
2017-11-24T01:42:16.379Z,87.70
2017-11-24T01:44:42.585Z,86.90
2017-11-24T01:47:09.381Z,86.80
2017-11-24T01:49:35.592Z,86.80
2017-11-24T01:52:02.948Z,86.80
2017-11-24T01:54:30.680Z,87.50
2017-11-24T01:56:56.915Z,87.40
2017-11-24T01:59:23.862Z,88.00
2017-11-24T02:01:50.092Z,87.30
2017-11-24T02:04:16.317Z,87.30
2017-11-24T02:06:42.930Z,87.80
2017-11-24T02:09:09.884Z,87.80
2017-11-24T02:11:36.975Z,88.20
2017-11-24T02:14:03.985Z,88.70
2017-11-24T02:16:30.185Z,88.30
2017-11-24T02:18:56.379Z,88.00
2017-11-24T02:21:23.337Z,88.80
2017-11-24T02:23:50.352Z,88.60
2017-11-24T02:26:16.631Z,87.60
2017-11-24T02:28:42.873Z,88.10
2017-11-24T02:31:09.077Z,88.90
2017-11-24T02:33:35.952Z,87.80
2017-11-24T02:36:02.194Z,87.70
2017-11-24T02:38:28.484Z,87.80
2017-11-24T02:40:55.517Z,87.70
2017-11-24T02:43:22.166Z,87.70
2017-11-24T02:45:49.202Z,86.60
2017-11-24T02:48:16.141Z,86.90
2017-11-24T02:50:42.417Z,86.50
2017-11-24T02:53:08.662Z,86.40
2017-11-24T02:55:34.910Z,86.10
2017-11-24T02:58:01.302Z,86.00
2017-11-24T03:00:27.574Z,85.90
2017-11-24T03:02:53.824Z,85.20
2017-11-24T03:05:20.780Z,84.50
2017-11-24T03:07:48.119Z,84.10
2017-11-24T03:10:14.364Z,83.70
2017-11-24T03:12:41.402Z,84.80
2017-11-24T03:15:08.450Z,84.10
2017-11-24T03:17:35.419Z,84.40
2017-11-24T03:20:01.635Z,83.30
2017-11-24T03:22:28.593Z,83.90
2017-11-24T03:24:54.798Z,83.40
2017-11-24T03:27:21.001Z,83.20
2017-11-24T03:29:47.212Z,83.20
2017-11-24T03:32:13.419Z,83.00
2017-11-24T03:34:39.740Z,83.70
2017-11-24T03:37:06.684Z,84.00
2017-11-24T03:39:33.644Z,84.20
2017-11-24T03:41:59.866Z,83.50
2017-11-24T03:44:26.094Z,83.50
2017-11-24T03:46:52.324Z,83.30
2017-11-24T03:49:18.530Z,83.30
2017-11-24T03:51:45.508Z,84.00
2017-11-24T03:54:11.697Z,83.30
2017-11-24T03:56:37.952Z,83.40
2017-11-24T03:59:04.899Z,83.50
2017-11-24T04:01:31.859Z,83.60
2017-11-24T04:03:58.462Z,83.50
2017-11-24T04:06:25.097Z,83.50
2017-11-24T04:08:51.372Z,83.50
2017-11-24T04:11:17.625Z,83.50
2017-11-24T04:13:44.267Z,83.50
2017-11-24T04:16:11.200Z,83.50
2017-11-24T04:18:37.876Z,84.00
2017-11-24T04:21:04.105Z,84.00
2017-11-24T04:23:30.356Z,83.80
2017-11-24T04:25:57.336Z,84.60
2017-11-24T04:28:23.525Z,84.60
2017-11-24T04:30:50.450Z,84.70
2017-11-24T04:33:16.680Z,84.30
2017-11-24T04:35:42.904Z,84.10
2017-11-24T04:38:09.168Z,84.10
2017-11-24T04:40:36.130Z,85.00
2017-11-24T04:43:02.376Z,84.50
2017-11-24T04:45:28.591Z,84.90
2017-11-24T04:47:54.804Z,85.30
2017-11-24T04:50:21.033Z,84.90
2017-11-24T04:52:47.239Z,84.80
2017-11-24T04:55:13.484Z,85.10
2017-11-24T04:57:40.448Z,85.80
2017-11-24T05:00:06.711Z,85.20
2017-11-24T05:02:33.549Z,85.50
2017-11-24T05:04:59.801Z,85.30
2017-11-24T05:07:26.021Z,85.80
2017-11-24T05:09:52.405Z,85.80
2017-11-24T05:12:18.614Z,85.90
2017-11-24T05:14:45.550Z,86.30
2017-11-24T05:17:11.746Z,85.90
2017-11-24T05:19:37.955Z,86.50
2017-11-24T05:22:04.189Z,86.90
2017-11-24T05:24:30.472Z,86.40
2017-11-24T05:26:57.442Z,86.50
2017-11-24T05:29:24.063Z,86.40
2017-11-24T05:31:51.015Z,86.50
2017-11-24T05:34:17.948Z,87.20
2017-11-24T05:36:45.091Z,86.70
2017-11-24T05:39:11.405Z,86.70
2017-11-24T05:41:37.671Z,86.10
2017-11-24T05:44:04.647Z,86.90
2017-11-24T05:46:30.862Z,86.90
2017-11-24T05:48:57.146Z,87.30
2017-11-24T05:51:24.368Z,87.20
2017-11-24T05:53:50.557Z,87.90
2017-11-24T05:56:17.545Z,88.10
2017-11-24T05:58:44.650Z,88.20
2017-11-24T06:01:12.621Z,89.20
2017-11-24T06:03:39.611Z,88.60
2017-11-24T06:06:05.890Z,88.40
2017-11-24T06:08:32.181Z,88.20
2017-11-24T06:10:58.457Z,88.10
2017-11-24T06:13:25.439Z,88.70
2017-11-24T06:15:52.436Z,88.10
2017-11-24T06:18:19.165Z,88.30
2017-11-24T06:20:46.179Z,88.00
2017-11-24T06:23:12.428Z,87.90
2017-11-24T06:25:39.372Z,87.00
2017-11-24T06:28:05.530Z,87.90
2017-11-24T06:30:31.753Z,89.10
2017-11-24T06:32:57.927Z,88.60
2017-11-24T06:35:24.789Z,88.30
2017-11-24T06:37:51.024Z,88.10
2017-11-24T06:40:18.008Z,89.30
2017-11-24T06:42:44.253Z,89.00
2017-11-24T06:45:11.180Z,89.60
2017-11-24T06:47:38.944Z,90.10
2017-11-24T06:59:50.280Z,89.30
2017-11-24T07:02:17.356Z,89.60
2017-11-24T07:04:45.371Z,90.10
2017-11-24T07:07:13.496Z,90.10
2017-11-24T07:09:40.607Z,90.10
2017-11-24T07:12:06.959Z,90.10
2017-11-24T07:14:33.330Z,90.10
2017-11-24T07:16:59.625Z,90.10
2017-11-24T07:19:25.915Z,89.80
2017-11-24T07:21:52.160Z,90.20
2017-11-24T07:24:18.440Z,89.80
2017-11-24T07:26:45.544Z,90.10
2017-11-24T07:29:11.819Z,89.80
2017-11-24T07:31:38.095Z,88.50
2017-11-24T07:34:04.393Z,88.60
2017-11-24T07:36:30.741Z,88.30
2017-11-24T07:38:57.550Z,88.10
2017-11-24T07:41:25.213Z,88.80
2017-11-24T07:43:52.210Z,88.80
2017-11-24T07:46:18.485Z,88.10
2017-11-24T07:48:45.464Z,88.60
2017-11-24T07:51:11.726Z,88.30
2017-11-24T07:53:38.742Z,88.10
2017-11-24T07:56:04.882Z,87.60
2017-11-24T07:58:31.100Z,87.50
2017-11-24T08:00:58.107Z,87.70
2017-11-24T08:03:25.086Z,87.90
2017-11-24T08:05:51.274Z,87.40
2017-11-24T08:08:17.529Z,87.40
2017-11-24T08:10:45.405Z,88.30
2017-11-24T08:13:11.633Z,87.50
2017-11-24T08:15:37.854Z,87.20
2017-11-24T08:18:05.314Z,88.20
2017-11-24T08:20:32.387Z,88.70
2017-11-24T08:22:58.627Z,87.50
2017-11-24T08:25:24.827Z,88.00
2017-11-24T08:27:51.786Z,85.80
2017-11-24T08:30:17.986Z,84.90
2017-11-24T08:32:45.186Z,85.00
2017-11-24T08:35:11.460Z,84.90
2017-11-24T08:37:38.369Z,84.70
2017-11-24T08:40:04.589Z,85.30
2017-11-24T08:42:30.765Z,85.10
2017-11-24T08:44:56.975Z,85.80
2017-11-24T08:47:30.230Z,83.80
2017-11-24T08:49:56.519Z,83.80
2017-11-24T08:52:23.454Z,85.00
2017-11-24T08:54:49.664Z,84.10
2017-11-24T08:57:16.290Z,83.80
2017-11-24T08:59:43.252Z,83.70
2017-11-24T09:02:10.568Z,84.00
2017-11-24T09:04:36.834Z,84.30
2017-11-24T09:07:03.083Z,83.90
2017-11-24T09:09:29.465Z,84.50
2017-11-24T09:11:55.707Z,83.30
2017-11-24T09:14:21.892Z,83.20
2017-11-24T09:16:48.813Z,83.00
2017-11-24T09:19:15.031Z,82.10
2017-11-24T09:21:41.241Z,82.40
2017-11-24T09:24:07.438Z,81.00
2017-11-24T09:26:33.673Z,80.40
2017-11-24T09:28:59.931Z,80.90
2017-11-24T09:31:26.891Z,81.40
2017-11-24T09:33:54.125Z,80.40
2017-11-24T09:36:20.313Z,80.80
2017-11-24T09:38:46.700Z,81.30
2017-11-24T09:41:13.748Z,78.80
2017-11-24T09:43:39.976Z,79.50
2017-11-24T09:46:06.869Z,79.90
2017-11-24T09:48:34.053Z,78.90
2017-11-24T09:51:00.306Z,79.00
2017-11-24T09:53:26.550Z,78.20
2017-11-24T09:55:54.281Z,78.30
2017-11-24T09:58:20.508Z,77.70
2017-11-24T10:00:47.853Z,78.50
2017-11-24T10:03:14.072Z,78.50
2017-11-24T10:05:40.255Z,78.70
2017-11-24T10:08:06.480Z,79.00
2017-11-24T10:10:32.666Z,79.30
2017-11-24T10:12:59.305Z,79.40
2017-11-24T10:15:25.620Z,79.00
2017-11-24T10:17:51.856Z,78.90
2017-11-24T10:20:18.104Z,79.50
2017-11-24T10:22:45.410Z,79.90
2017-11-24T10:25:13.043Z,80.00
2017-11-24T10:27:39.592Z,79.80
2017-11-24T10:30:08.929Z,79.80
2017-11-24T10:32:35.238Z,79.60
2017-11-24T10:35:01.486Z,79.50
2017-11-24T10:37:27.712Z,78.40
2017-11-24T10:39:54.775Z,78.70
2017-11-24T10:42:20.953Z,78.70
2017-11-24T10:44:47.202Z,77.90
2017-11-24T10:47:13.409Z,77.60
2017-11-24T10:49:39.626Z,76.50
2017-11-24T10:52:05.865Z,76.40
2017-11-24T10:54:32.032Z,77.10
2017-11-24T10:56:58.969Z,77.50
2017-11-24T11:09:10.964Z,77.10
2017-11-24T11:11:37.166Z,76.40
2017-11-24T11:14:04.100Z,77.80
2017-11-24T11:16:31.170Z,77.90
2017-11-24T11:18:58.132Z,78.30
2017-11-24T11:21:24.343Z,77.90
2017-11-24T11:23:52.325Z,77.70
2017-11-24T11:26:18.557Z,77.60
2017-11-24T11:28:45.533Z,77.60
2017-11-24T11:31:11.797Z,77.60
2017-11-24T11:33:38.025Z,77.50
2017-11-24T11:36:04.688Z,76.60
2017-11-24T11:38:31.706Z,77.10
2017-11-24T11:40:58.822Z,76.60
2017-11-24T11:43:25.151Z,76.40
2017-11-24T11:45:51.696Z,76.40
2017-11-24T11:48:18.063Z,76.60
2017-11-24T11:50:44.307Z,77.00
2017-11-24T11:53:10.587Z,77.00
2017-11-24T11:55:36.828Z,76.40
2017-11-24T11:58:03.081Z,76.60
2017-11-24T12:00:29.333Z,77.10
2017-11-24T12:02:56.351Z,77.10
2017-11-24T12:05:22.584Z,76.40
2017-11-24T12:07:48.810Z,76.40
2017-11-24T12:10:15.139Z,77.00
2017-11-24T12:12:41.431Z,76.80
2017-11-24T12:15:07.716Z,76.80
2017-11-24T12:17:34.705Z,77.50
2017-11-24T12:20:01.093Z,76.90
2017-11-24T12:22:28.080Z,77.60
2017-11-24T12:24:55.223Z,77.30
2017-11-24T12:27:22.429Z,77.10
2017-11-24T12:29:49.686Z,77.60
2017-11-24T12:32:16.600Z,77.50
2017-11-24T12:34:43.728Z,78.00
2017-11-24T12:37:09.970Z,78.00
2017-11-24T12:39:37.173Z,78.10
2017-11-24T12:42:04.112Z,77.80
2017-11-24T12:44:32.082Z,77.80
2017-11-24T12:46:58.356Z,77.10
2017-11-24T12:49:24.687Z,77.30
2017-11-24T12:51:51.706Z,77.40
2017-11-24T12:54:20.017Z,77.00
2017-11-24T12:56:47.238Z,77.10
2017-11-24T12:59:15.818Z,77.90
2017-11-24T13:01:43.068Z,78.30
2017-11-24T13:04:10.755Z,78.20
2017-11-24T13:06:36.975Z,78.20
2017-11-24T13:09:03.194Z,78.20
2017-11-24T13:11:31.184Z,79.00
2017-11-24T13:13:57.603Z,78.40
2017-11-24T13:16:24.601Z,78.60
2017-11-24T13:18:50.787Z,78.60
2017-11-24T13:21:20.370Z,79.00
2017-11-24T13:23:47.343Z,78.80
2017-11-24T13:26:13.569Z,78.70
2017-11-24T13:28:39.760Z,78.20
2017-11-24T13:40:50.995Z,78.80
2017-11-24T13:43:18.001Z,79.50
2017-11-24T13:45:44.999Z,80.20
2017-11-24T13:48:11.247Z,80.50
2017-11-24T13:50:38.971Z,81.10
2017-11-24T13:53:05.232Z,81.30
2017-11-24T13:55:31.985Z,82.20
2017-11-24T13:57:58.959Z,84.10
2017-11-24T14:00:26.090Z,83.50
2017-11-24T14:02:53.938Z,84.30
2017-11-24T14:05:21.723Z,83.60
2017-11-24T14:07:49.353Z,84.20
2017-11-24T14:10:16.268Z,84.50
2017-11-24T14:12:43.523Z,85.00
2017-11-24T14:15:11.891Z,84.90
2017-11-24T14:17:38.163Z,85.10
2017-11-24T14:29:50.316Z,84.60
2017-11-24T14:32:17.180Z,83.40
2017-11-24T14:34:43.367Z,82.20
2017-11-24T14:37:09.648Z,80.30
2017-11-24T14:39:36.629Z,80.10
2017-11-24T14:42:02.912Z,79.20
2017-11-24T14:44:29.144Z,79.50
2017-11-24T14:46:55.483Z,80.30
2017-11-24T14:49:22.653Z,81.10
2017-11-24T14:51:50.710Z,81.60
2017-11-24T14:54:19.116Z,83.60
2017-11-24T14:56:45.505Z,80.80
2017-11-24T14:59:11.763Z,81.30
2017-11-24T15:01:38.626Z,78.30
2017-11-24T15:04:04.828Z,77.60
2017-11-24T15:06:33.563Z,75.80
2017-11-24T15:09:00.600Z,75.80
2017-11-24T15:11:26.779Z,75.80
2017-11-24T15:13:53.079Z,75.70
2017-11-24T15:16:23.064Z,75.90
2017-11-24T15:18:49.305Z,75.70
2017-11-24T15:21:15.522Z,75.80
2017-11-24T15:23:41.796Z,76.00
2017-11-24T15:26:08.849Z,75.50
2017-11-24T15:28:37.372Z,76.00
2017-11-24T15:31:04.502Z,76.00
2017-11-24T15:33:33.248Z,75.40
2017-11-24T15:35:59.494Z,75.20
2017-11-24T15:38:25.694Z,75.00
2017-11-24T15:40:51.971Z,75.50
2017-11-24T15:43:18.314Z,75.10
2017-11-24T15:45:46.247Z,75.50
2017-11-24T15:48:12.466Z,75.80
2017-11-24T15:50:39.471Z,75.30
2017-11-24T15:53:06.405Z,75.20
2017-11-24T15:55:32.662Z,75.10
2017-11-24T15:57:58.996Z,73.30
2017-11-24T16:00:25.293Z,74.30
2017-11-24T16:02:51.625Z,74.70
2017-11-24T16:05:18.879Z,74.80
2017-11-24T16:07:45.109Z,73.80
2017-11-24T16:10:11.373Z,73.90
2017-11-24T16:12:37.623Z,75.00
2017-11-24T16:15:03.889Z,75.00
2017-11-24T16:17:31.065Z,76.10
2017-11-24T16:19:58.005Z,75.50
2017-11-24T16:22:24.985Z,75.60
2017-11-24T16:24:51.210Z,75.50
2017-11-24T16:27:17.384Z,75.60
2017-11-24T16:29:43.621Z,74.50
2017-11-24T16:32:09.950Z,75.00
2017-11-24T16:34:36.184Z,76.30
2017-11-24T16:37:03.404Z,75.30
2017-11-24T16:39:29.634Z,76.40
2017-11-24T16:41:56.618Z,76.10
2017-11-24T16:44:23.006Z,77.50
2017-11-24T16:46:49.548Z,78.80
2017-11-24T16:49:18.809Z,79.50
2017-11-24T16:51:46.977Z,80.00
2017-11-24T16:54:13.958Z,81.00
2017-11-24T16:56:40.160Z,80.80
2017-11-24T16:59:07.256Z,80.90
2017-11-24T17:11:20.150Z,82.20
2017-11-24T17:13:47.270Z,82.40
2017-11-24T17:16:13.543Z,82.40
2017-11-24T17:18:39.823Z,82.40
2017-11-24T17:30:51.120Z,83.50
2017-11-24T17:33:17.431Z,83.70
2017-11-24T17:35:44.011Z,83.30
2017-11-24T17:38:12.981Z,84.50
2017-11-24T17:40:40.760Z,84.90
2017-11-24T17:43:08.983Z,84.50
2017-11-24T17:45:35.382Z,84.80
2017-11-24T17:48:02.337Z,85.20
2017-11-24T17:50:29.317Z,85.00
2017-11-24T17:52:55.740Z,84.90
2017-11-24T17:55:23.731Z,85.80
2017-11-24T17:57:51.072Z,85.80
2017-11-24T18:00:17.871Z,85.30
2017-11-24T18:02:45.279Z,85.30
2017-11-24T18:05:14.551Z,84.10
2017-11-24T18:07:40.841Z,83.60
2017-11-24T18:10:08.013Z,83.30
2017-11-24T18:12:35.733Z,84.50
2017-11-24T18:15:03.437Z,84.00
2017-11-24T18:17:31.150Z,84.70
2017-11-24T18:19:57.433Z,84.60
2017-11-24T18:22:25.797Z,85.20
2017-11-24T18:24:52.220Z,85.00
2017-11-24T18:27:18.573Z,85.50
2017-11-24T18:29:45.692Z,88.00
2017-11-24T18:32:11.993Z,83.10
2017-11-24T18:34:38.337Z,82.10
2017-11-24T18:37:04.617Z,81.90
2017-11-24T18:39:31.712Z,82.90
2017-11-24T18:41:58.026Z,82.90
2017-11-24T18:44:24.407Z,82.40
2017-11-24T18:46:51.303Z,82.70
2017-11-24T18:49:17.603Z,82.30
2017-11-24T18:51:44.097Z,82.10
2017-11-24T18:54:10.401Z,82.10
2017-11-24T18:56:37.192Z,83.20
2017-11-24T18:59:03.455Z,83.00
2017-11-24T19:01:30.573Z,83.30
2017-11-24T19:03:56.876Z,83.00
2017-11-24T19:06:24.158Z,83.20
2017-11-24T19:08:50.945Z,83.60
2017-11-24T19:11:17.604Z,83.30
2017-11-24T19:13:44.651Z,83.70
2017-11-24T19:16:10.892Z,84.20
2017-11-24T19:18:37.247Z,84.50
2017-11-24T19:21:03.503Z,84.50
2017-11-24T19:23:31.185Z,85.30
2017-11-24T19:25:58.134Z,85.10
2017-11-24T19:28:24.397Z,85.80
2017-11-24T19:30:52.292Z,84.80
2017-11-24T19:36:09.324Z,84.60
2017-11-24T19:38:35.767Z,84.80
2017-11-24T19:41:02.522Z,84.30
2017-11-24T19:43:44.814Z,84.60
2017-11-24T19:48:46.194Z,84.20
2017-11-24T19:51:13.245Z,85.00
2017-11-24T19:53:41.970Z,85.00
2017-11-24T19:56:09.010Z,84.80
2017-11-24T19:58:35.267Z,84.60
2017-11-24T20:01:01.600Z,85.00
2017-11-24T20:03:27.992Z,85.00
2017-11-24T20:05:54.325Z,85.00
2017-11-24T20:08:20.628Z,85.40
2017-11-24T20:10:47.605Z,86.60
2017-11-24T20:13:14.229Z,87.20
2017-11-24T20:15:40.492Z,86.20
2017-11-24T20:18:07.450Z,85.90
2017-11-24T20:20:33.714Z,85.30
2017-11-24T20:23:00.005Z,85.50
2017-11-24T20:25:26.256Z,85.50
2017-11-24T20:27:53.315Z,85.10
2017-11-24T20:30:19.612Z,85.50
2017-11-24T20:32:45.971Z,85.40
2017-11-24T20:35:12.206Z,85.60
2017-11-24T20:37:39.121Z,85.80
2017-11-24T20:40:05.376Z,85.80
2017-11-24T20:42:31.943Z,87.50
2017-11-24T20:44:58.334Z,87.60
2017-11-24T20:47:24.589Z,88.00
2017-11-24T20:49:50.932Z,87.90
2017-11-24T20:52:18.032Z,88.30
2017-11-24T20:54:44.325Z,88.40
2017-11-24T20:57:10.569Z,88.70
2017-11-24T20:59:36.794Z,89.00
2017-11-24T21:02:03.070Z,88.70
2017-11-24T21:04:29.314Z,89.00
2017-11-24T21:06:55.723Z,89.10
2017-11-24T21:09:22.287Z,89.50
2017-11-24T21:11:49.551Z,89.60
2017-11-24T21:14:15.886Z,89.80
2017-11-24T21:16:43.241Z,90.10
2017-11-24T21:19:09.690Z,89.80
2017-11-24T21:21:35.949Z,89.60
2017-11-24T21:24:02.287Z,89.70
2017-11-24T21:26:28.604Z,89.80
2017-11-24T21:28:55.306Z,89.70
2017-11-24T21:31:22.344Z,90.10
2017-11-24T21:33:48.621Z,89.70
2017-11-24T21:36:14.916Z,89.80
2017-11-24T21:38:41.933Z,90.10
2017-11-24T21:41:08.245Z,90.00
2017-11-24T21:43:34.661Z,90.00
2017-11-24T21:46:01.784Z,90.10
2017-11-24T21:48:28.779Z,90.40
2017-11-24T21:50:55.595Z,90.10
2017-11-24T21:53:21.852Z,90.00
2017-11-24T21:55:49.279Z,90.00
2017-11-24T21:58:15.750Z,89.80
2017-11-24T22:00:41.990Z,89.80
2017-11-24T22:03:08.391Z,90.10
2017-11-24T22:05:34.640Z,90.20
2017-11-24T22:08:01.057Z,90.00
2017-11-24T22:10:27.243Z,89.90
2017-11-24T22:12:55.222Z,90.10
2017-11-24T22:15:22.305Z,89.60
2017-11-24T22:17:48.579Z,89.20
2017-11-24T22:20:14.778Z,89.60
2017-11-24T22:22:40.978Z,89.60
2017-11-24T22:25:07.965Z,89.60
2017-11-24T22:27:34.287Z,89.60
2017-11-24T22:30:00.547Z,89.60
2017-11-24T22:32:27.528Z,90.00
2017-11-24T22:34:54.153Z,89.60
2017-11-24T22:37:20.764Z,89.60
2017-11-24T22:39:47.139Z,89.60
2017-11-24T22:42:13.496Z,89.60
2017-11-24T22:44:39.782Z,89.60
2017-11-24T22:47:05.969Z,89.60
2017-11-24T22:49:32.739Z,89.40
2017-11-24T22:51:59.683Z,90.10
2017-11-24T22:54:26.643Z,89.60
2017-11-24T22:56:53.654Z,89.80
2017-11-24T22:59:19.889Z,89.60
2017-11-24T23:01:47.056Z,89.60
2017-11-24T23:04:14.182Z,90.10
2017-11-24T23:06:40.474Z,89.50
2017-11-24T23:09:06.751Z,89.30
2017-11-24T23:11:35.289Z,89.60
2017-11-24T23:14:01.569Z,89.60
2017-11-24T23:16:27.807Z,89.60
2017-11-24T23:18:54.830Z,90.10
2017-11-24T23:21:21.688Z,89.60
2017-11-24T23:23:49.504Z,90.10
2017-11-24T23:26:17.627Z,90.00
2017-11-24T23:28:44.134Z,90.10
2017-11-24T23:31:10.372Z,90.10
2017-11-24T23:33:36.650Z,90.00
2017-11-24T23:36:07.777Z,90.10
2017-11-24T23:38:34.039Z,89.60
2017-11-24T23:41:00.287Z,89.60
2017-11-24T23:43:26.514Z,89.60
2017-11-24T23:45:53.192Z,89.90
2017-11-24T23:48:19.451Z,90.10
2017-11-24T23:50:47.166Z,90.60
2017-11-24T23:53:13.603Z,90.40
2017-11-24T23:55:39.829Z,90.40
2017-11-24T23:58:06.008Z,90.10
